Terminal Aerodrome Forecast
Issued by NWS Cleveland, OH

Home | Current Version | Previous Version | Graphics & Text | Print | Product List | Glossary On
Versions: 1 2 3 4 5 6 7 8 9 10 11 12 13 14 15 16 17 18 19 20 21 22 23
000
FTUS41 KCLE 171700
TAFMFD
TAF
KMFD 171729Z 1718/1818 36004KT P6SM VCSH SCT020 OVC035
     FM172300 09005KT P6SM BKN040
     FM180600 09005KT 4SM BR SCT015 BKN035
      TEMPO 1810/1813 2SM BR OVC007=

USA.gov is the U.S. government's official web portal to all federal, state and local government web resources and services.